Etusivu
METAR-TAF:

METAR-TAF

Lentoasemat :

Grand Rapids/Itasca County Airport (Gordon Newstrom Field)

Grand Rapids, Minnesota, Yhdysvallat

Leveyspiiri: 47-13N, Pituuspiiri: 093-31W, korkeus merenpinnasta: 413 m

Tämänhetkinen sää

Tämä raportti tehtiin 44 minuuttia sitten, kello 09.56 UTC
Tuuli 6 kn luoteesta
Lämpötila -14°C
Kosteus 85%
Ilmanpaine 1028 hPa
Näkyvyys: 16.1 km
Hajanaisia pilviä 7000 ft:n korkeudessa

METAR: KGPZ 260956Z AUTO 32006KT 10SM SCT070 M14/M16 A3035 RMK AO2 SLP307 T11391156 FZRANO

Aika: 04:40 (10:40 UTC)


TAF: puuttuu

Säähavainnot ja -ennusteet yli 4000 lentoasemalta (METAR- ja TAF-raportit).

Käytössä olevat sääasemat on merkitty karttaan keltaisilla ja punaisilla pisteillä.

Aseta hiiri pisteen päälle nähdäksesi sääaseman nimen.

Klikkaa sitten nähdäksesi säähavainnot ja -ennusteet.

Kartan vaihtaminen: klikkaa mustalla rastilla varustettuja vihreitä pisteitä, niin voit zoomata sisään; viivalla varustettua vihreää pistettä, niin voit zoomata ulos tai vihreitä nuolia, niin pääset viereisille kartoille.


METAR-TAF: